sensor_id;sensor_type;location;lat;lon;timestamp;temperature;humidity
18131;DHT22;9191;54.324;10.126;2023-06-10T00:01:42;15.10;99.90
18131;DHT22;9191;54.324;10.126;2023-06-10T00:04:12;15.00;99.90
18131;DHT22;9191;54.324;10.126;2023-06-10T00:06:39;15.00;99.90
18131;DHT22;9191;54.324;10.126;2023-06-10T00:09:07;15.00;99.90
18131;DHT22;9191;54.324;10.126;2023-06-10T00:11:35;14.90;99.90
18131;DHT22;9191;54.324;10.126;2023-06-10T00:14:02;14.90;99.90
18131;DHT22;9191;54.324;10.126;2023-06-10T00:16:29;14.90;99.90
18131;DHT22;9191;54.324;10.126;2023-06-10T00:18:56;14.80;99.90
18131;DHT22;9191;54.324;10.126;2023-06-10T00:21:26;14.80;99.90
18131;DHT22;9191;54.324;10.126;2023-06-10T00:23:53;14.80;99.90
18131;DHT22;9191;54.324;10.126;2023-06-10T00:26:22;14.80;99.90
18131;DHT22;9191;54.324;10.126;2023-06-10T00:28:49;14.70;99.90
18131;DHT22;9191;54.324;10.126;2023-06-10T00:31:16;14.70;99.90
18131;DHT22;9191;54.324;10.126;2023-06-10T00:33:42;14.70;99.90
18131;DHT22;9191;54.324;10.126;2023-06-10T00:36:09;14.70;99.90
18131;DHT22;9191;54.324;10.126;2023-06-10T00:38:36;14.70;99.90
18131;DHT22;9191;54.324;10.126;2023-06-10T00:41:02;14.70;99.90
18131;DHT22;9191;54.324;10.126;2023-06-10T00:43:30;14.70;99.90
18131;DHT22;9191;54.324;10.126;2023-06-10T00:45:57;14.70;99.90
18131;DHT22;9191;54.324;10.126;2023-06-10T00:48:24;14.70;99.90
18131;DHT22;9191;54.324;10.126;2023-06-10T00:50:51;14.70;99.90
18131;DHT22;9191;54.324;10.126;2023-06-10T00:53:17;14.80;99.90
18131;DHT22;9191;54.324;10.126;2023-06-10T00:55:44;14.80;99.90
18131;DHT22;9191;54.324;10.126;2023-06-10T00:58:11;14.70;99.90
18131;DHT22;9191;54.324;10.126;2023-06-10T01:00:39;14.70;99.90
18131;DHT22;9191;54.324;10.126;2023-06-10T01:03:06;14.70;99.90
18131;DHT22;9191;54.324;10.126;2023-06-10T01:05:35;14.70;99.90
18131;DHT22;9191;54.324;10.126;2023-06-10T01:08:03;14.60;99.90
18131;DHT22;9191;54.324;10.126;2023-06-10T01:10:34;14.60;99.90
18131;DHT22;9191;54.324;10.126;2023-06-10T01:13:02;14.60;99.90
18131;DHT22;9191;54.324;10.126;2023-06-10T01:15:29;14.60;99.90
18131;DHT22;9191;54.324;10.126;2023-06-10T01:17:59;14.50;99.90
18131;DHT22;9191;54.324;10.126;2023-06-10T01:20:27;14.60;99.90
18131;DHT22;9191;54.324;10.126;2023-06-10T01:22:55;14.60;99.90
18131;DHT22;9191;54.324;10.126;2023-06-10T01:25:23;14.60;99.90
18131;DHT22;9191;54.324;10.126;2023-06-10T01:27:53;14.50;99.90
18131;DHT22;9191;54.324;10.126;2023-06-10T01:30:21;14.50;99.90
18131;DHT22;9191;54.324;10.126;2023-06-10T01:32:55;14.50;99.90
18131;DHT22;9191;54.324;10.126;2023-06-10T01:35:22;14.50;99.90
18131;DHT22;9191;54.324;10.126;2023-06-10T01:37:50;14.50;99.90
18131;DHT22;9191;54.324;10.126;2023-06-10T01:40:21;14.50;99.90
18131;DHT22;9191;54.324;10.126;2023-06-10T01:42:50;14.60;99.90
18131;DHT22;9191;54.324;10.126;2023-06-10T01:45:17;14.60;99.90
18131;DHT22;9191;54.324;10.126;2023-06-10T01:47:44;14.60;99.90
18131;DHT22;9191;54.324;10.126;2023-06-10T01:50:10;14.60;99.90
18131;DHT22;9191;54.324;10.126;2023-06-10T01:52:37;14.50;99.90
18131;DHT22;9191;54.324;10.126;2023-06-10T01:55:04;14.50;99.90
18131;DHT22;9191;54.324;10.126;2023-06-10T01:57:32;14.50;99.90
18131;DHT22;9191;54.324;10.126;2023-06-10T01:59:59;14.50;99.90
18131;DHT22;9191;54.324;10.126;2023-06-10T02:02:26;14.50;99.90
18131;DHT22;9191;54.324;10.126;2023-06-10T02:04:52;14.50;99.90
18131;DHT22;9191;54.324;10.126;2023-06-10T02:07:19;14.50;99.90
18131;DHT22;9191;54.324;10.126;2023-06-10T02:09:45;14.50;99.90
18131;DHT22;9191;54.324;10.126;2023-06-10T02:12:12;14.50;99.90
18131;DHT22;9191;54.324;10.126;2023-06-10T02:14:40;14.50;99.90
18131;DHT22;9191;54.324;10.126;2023-06-10T02:17:07;14.40;99.90
18131;DHT22;9191;54.324;10.126;2023-06-10T02:19:38;14.50;99.90
18131;DHT22;9191;54.324;10.126;2023-06-10T02:22:07;14.50;99.90
18131;DHT22;9191;54.324;10.126;2023-06-10T02:24:35;14.50;99.90
18131;DHT22;9191;54.324;10.126;2023-06-10T02:27:02;14.50;99.90
18131;DHT22;9191;54.324;10.126;2023-06-10T02:29:29;14.40;99.90
18131;DHT22;9191;54.324;10.126;2023-06-10T02:31:57;14.50;99.90
18131;DHT22;9191;54.324;10.126;2023-06-10T02:34:23;14.50;99.90
18131;DHT22;9191;54.324;10.126;2023-06-10T02:36:50;14.50;99.90
18131;DHT22;9191;54.324;10.126;2023-06-10T02:39:17;14.50;99.90
18131;DHT22;9191;54.324;10.126;2023-06-10T02:41:43;14.60;99.90
18131;DHT22;9191;54.324;10.126;2023-06-10T02:44:10;14.50;99.90
18131;DHT22;9191;54.324;10.126;2023-06-10T02:46:36;14.50;99.90
18131;DHT22;9191;54.324;10.126;2023-06-10T02:49:04;14.50;99.90
18131;DHT22;9191;54.324;10.126;2023-06-10T02:51:31;14.50;99.90
18131;DHT22;9191;54.324;10.126;2023-06-10T02:53:58;14.50;99.90
18131;DHT22;9191;54.324;10.126;2023-06-10T02:56:24;14.50;99.90
18131;DHT22;9191;54.324;10.126;2023-06-10T02:58:51;14.50;99.90
18131;DHT22;9191;54.324;10.126;2023-06-10T03:01:18;14.50;99.90
18131;DHT22;9191;54.324;10.126;2023-06-10T03:03:45;14.50;99.90
18131;DHT22;9191;54.324;10.126;2023-06-10T03:06:13;14.50;99.90
18131;DHT22;9191;54.324;10.126;2023-06-10T03:08:40;14.50;99.90
18131;DHT22;9191;54.324;10.126;2023-06-10T03:11:06;14.60;99.90
18131;DHT22;9191;54.324;10.126;2023-06-10T03:13:33;14.70;99.90
18131;DHT22;9191;54.324;10.126;2023-06-10T03:16:00;14.70;99.90
18131;DHT22;9191;54.324;10.126;2023-06-10T03:18:28;14.60;99.90
18131;DHT22;9191;54.324;10.126;2023-06-10T03:20:55;14.60;99.90
18131;DHT22;9191;54.324;10.126;2023-06-10T03:23:23;14.60;99.90
18131;DHT22;9191;54.324;10.126;2023-06-10T03:25:50;14.60;99.90
18131;DHT22;9191;54.324;10.126;2023-06-10T03:28:18;14.60;99.90
18131;DHT22;9191;54.324;10.126;2023-06-10T03:30:44;14.60;99.90
18131;DHT22;9191;54.324;10.126;2023-06-10T03:33:11;14.70;99.90
18131;DHT22;9191;54.324;10.126;2023-06-10T03:35:39;14.60;99.90
18131;DHT22;9191;54.324;10.126;2023-06-10T03:38:05;14.60;99.90
18131;DHT22;9191;54.324;10.126;2023-06-10T03:40:33;14.60;99.90
18131;DHT22;9191;54.324;10.126;2023-06-10T03:43:00;14.70;99.90
18131;DHT22;9191;54.324;10.126;2023-06-10T03:45:27;14.60;99.90
18131;DHT22;9191;54.324;10.126;2023-06-10T03:47:54;14.60;99.90
18131;DHT22;9191;54.324;10.126;2023-06-10T03:50:21;14.60;99.90
18131;DHT22;9191;54.324;10.126;2023-06-10T03:52:49;14.60;99.90
18131;DHT22;9191;54.324;10.126;2023-06-10T03:55:16;14.50;99.90
18131;DHT22;9191;54.324;10.126;2023-06-10T03:57:44;14.60;99.90
18131;DHT22;9191;54.324;10.126;2023-06-10T04:00:11;14.60;99.90
18131;DHT22;9191;54.324;10.126;2023-06-10T04:02:38;14.50;99.90
18131;DHT22;9191;54.324;10.126;2023-06-10T04:05:11;14.60;99.90
18131;DHT22;9191;54.324;10.126;2023-06-10T04:07:37;14.60;99.90
18131;DHT22;9191;54.324;10.126;2023-06-10T04:10:06;14.70;99.90
18131;DHT22;9191;54.324;10.126;2023-06-10T04:12:33;14.70;99.90
18131;DHT22;9191;54.324;10.126;2023-06-10T04:15:01;14.80;99.90
18131;DHT22;9191;54.324;10.126;2023-06-10T04:17:28;14.70;99.90
18131;DHT22;9191;54.324;10.126;2023-06-10T04:19:55;14.70;99.90
18131;DHT22;9191;54.324;10.126;2023-06-10T04:22:21;14.80;99.90
18131;DHT22;9191;54.324;10.126;2023-06-10T04:24:49;14.80;99.90
18131;DHT22;9191;54.324;10.126;2023-06-10T04:27:18;14.80;99.90
18131;DHT22;9191;54.324;10.126;2023-06-10T04:29:45;14.80;99.90
18131;DHT22;9191;54.324;10.126;2023-06-10T04:32:13;14.90;99.90
18131;DHT22;9191;54.324;10.126;2023-06-10T04:34:40;14.90;99.90
18131;DHT22;9191;54.324;10.126;2023-06-10T04:37:07;15.00;99.90
18131;DHT22;9191;54.324;10.126;2023-06-10T04:39:34;14.90;99.90
18131;DHT22;9191;54.324;10.126;2023-06-10T04:42:01;15.00;99.90
18131;DHT22;9191;54.324;10.126;2023-06-10T04:44:27;15.10;99.90
18131;DHT22;9191;54.324;10.126;2023-06-10T04:46:56;15.30;99.90
18131;DHT22;9191;54.324;10.126;2023-06-10T04:49:25;15.30;99.90
18131;DHT22;9191;54.324;10.126;2023-06-10T04:51:53;15.40;99.90
18131;DHT22;9191;54.324;10.126;2023-06-10T04:54:19;15.40;99.90
18131;DHT22;9191;54.324;10.126;2023-06-10T04:56:46;15.50;99.90
18131;DHT22;9191;54.324;10.126;2023-06-10T04:59:13;15.60;99.90
18131;DHT22;9191;54.324;10.126;2023-06-10T05:01:39;15.70;99.90
18131;DHT22;9191;54.324;10.126;2023-06-10T05:04:06;15.80;99.90
18131;DHT22;9191;54.324;10.126;2023-06-10T05:06:34;15.80;99.90
18131;DHT22;9191;54.324;10.126;2023-06-10T05:09:02;15.80;99.90
18131;DHT22;9191;54.324;10.126;2023-06-10T05:11:28;15.90;99.90
18131;DHT22;9191;54.324;10.126;2023-06-10T05:13:55;16.10;99.90
18131;DHT22;9191;54.324;10.126;2023-06-10T05:16:22;16.20;99.90
18131;DHT22;9191;54.324;10.126;2023-06-10T05:18:48;16.20;99.90
18131;DHT22;9191;54.324;10.126;2023-06-10T05:21:16;16.20;99.90
18131;DHT22;9191;54.324;10.126;2023-06-10T05:23:44;16.30;99.90
18131;DHT22;9191;54.324;10.126;2023-06-10T05:26:11;16.40;99.90
18131;DHT22;9191;54.324;10.126;2023-06-10T05:28:37;16.40;99.90
18131;DHT22;9191;54.324;10.126;2023-06-10T05:31:04;16.50;99.90
18131;DHT22;9191;54.324;10.126;2023-06-10T05:33:30;16.60;99.90
18131;DHT22;9191;54.324;10.126;2023-06-10T05:35:57;16.70;99.90
18131;DHT22;9191;54.324;10.126;2023-06-10T05:38:24;16.70;99.90
18131;DHT22;9191;54.324;10.126;2023-06-10T05:40:55;16.70;99.90
18131;DHT22;9191;54.324;10.126;2023-06-10T05:43:24;16.90;99.90
18131;DHT22;9191;54.324;10.126;2023-06-10T05:45:50;17.00;99.90
18131;DHT22;9191;54.324;10.126;2023-06-10T05:48:17;17.10;99.90
18131;DHT22;9191;54.324;10.126;2023-06-10T05:50:45;17.10;99.90
18131;DHT22;9191;54.324;10.126;2023-06-10T05:53:13;17.00;99.90
18131;DHT22;9191;54.324;10.126;2023-06-10T05:55:41;17.10;99.90
18131;DHT22;9191;54.324;10.126;2023-06-10T05:58:09;17.10;99.90
18131;DHT22;9191;54.324;10.126;2023-06-10T06:00:37;17.20;99.90
18131;DHT22;9191;54.324;10.126;2023-06-10T06:03:05;17.30;99.90
18131;DHT22;9191;54.324;10.126;2023-06-10T06:05:32;17.30;99.90
18131;DHT22;9191;54.324;10.126;2023-06-10T06:08:00;17.20;99.90
18131;DHT22;9191;54.324;10.126;2023-06-10T06:10:27;17.10;99.90
18131;DHT22;9191;54.324;10.126;2023-06-10T06:12:53;17.10;99.90
18131;DHT22;9191;54.324;10.126;2023-06-10T06:15:22;17.20;99.90
18131;DHT22;9191;54.324;10.126;2023-06-10T06:17:49;17.30;99.90
18131;DHT22;9191;54.324;10.126;2023-06-10T06:20:18;17.40;99.90
18131;DHT22;9191;54.324;10.126;2023-06-10T06:22:44;17.50;99.90
18131;DHT22;9191;54.324;10.126;2023-06-10T06:25:11;17.60;99.90
18131;DHT22;9191;54.324;10.126;2023-06-10T06:27:40;17.70;99.90
18131;DHT22;9191;54.324;10.126;2023-06-10T06:30:07;17.80;99.90
18131;DHT22;9191;54.324;10.126;2023-06-10T06:32:35;17.90;99.90
18131;DHT22;9191;54.324;10.126;2023-06-10T06:35:02;17.90;99.90
18131;DHT22;9191;54.324;10.126;2023-06-10T06:37:31;18.00;99.90
18131;DHT22;9191;54.324;10.126;2023-06-10T06:39:58;18.10;99.90
18131;DHT22;9191;54.324;10.126;2023-06-10T06:42:25;18.20;99.90
18131;DHT22;9191;54.324;10.126;2023-06-10T06:44:52;18.30;99.90
18131;DHT22;9191;54.324;10.126;2023-06-10T06:47:18;18.20;99.90
18131;DHT22;9191;54.324;10.126;2023-06-10T06:49:46;18.10;99.90
18131;DHT22;9191;54.324;10.126;2023-06-10T06:52:14;18.00;99.90
18131;DHT22;9191;54.324;10.126;2023-06-10T06:54:41;18.10;99.90
18131;DHT22;9191;54.324;10.126;2023-06-10T06:57:07;18.20;99.90
18131;DHT22;9191;54.324;10.126;2023-06-10T06:59:34;18.20;99.90
18131;DHT22;9191;54.324;10.126;2023-06-10T07:02:01;18.10;99.90
18131;DHT22;9191;54.324;10.126;2023-06-10T07:04:27;18.30;99.90
18131;DHT22;9191;54.324;10.126;2023-06-10T07:06:55;18.50;99.90
18131;DHT22;9191;54.324;10.126;2023-06-10T07:09:22;18.60;99.90
18131;DHT22;9191;54.324;10.126;2023-06-10T07:11:49;18.70;99.90
18131;DHT22;9191;54.324;10.126;2023-06-10T07:14:15;18.60;99.90
18131;DHT22;9191;54.324;10.126;2023-06-10T07:16:42;18.70;99.90
18131;DHT22;9191;54.324;10.126;2023-06-10T07:19:10;18.60;99.90
18131;DHT22;9191;54.324;10.126;2023-06-10T07:21:37;18.70;99.90
18131;DHT22;9191;54.324;10.126;2023-06-10T07:24:06;18.70;99.90
18131;DHT22;9191;54.324;10.126;2023-06-10T07:26:32;18.80;99.90
18131;DHT22;9191;54.324;10.126;2023-06-10T07:28:59;18.90;99.90
18131;DHT22;9191;54.324;10.126;2023-06-10T07:31:26;19.00;99.90
18131;DHT22;9191;54.324;10.126;2023-06-10T07:33:52;18.80;99.90
18131;DHT22;9191;54.324;10.126;2023-06-10T07:36:19;18.70;99.90
18131;DHT22;9191;54.324;10.126;2023-06-10T07:38:46;18.90;99.90
18131;DHT22;9191;54.324;10.126;2023-06-10T07:41:14;19.00;99.90
18131;DHT22;9191;54.324;10.126;2023-06-10T07:43:43;19.10;99.90
18131;DHT22;9191;54.324;10.126;2023-06-10T07:46:10;19.20;99.90
18131;DHT22;9191;54.324;10.126;2023-06-10T07:48:36;19.10;99.90
18131;DHT22;9191;54.324;10.126;2023-06-10T07:51:03;19.00;99.90
18131;DHT22;9191;54.324;10.126;2023-06-10T07:53:30;18.90;99.90
18131;DHT22;9191;54.324;10.126;2023-06-10T07:55:56;18.70;99.90
18131;DHT22;9191;54.324;10.126;2023-06-10T07:58:24;18.60;99.90
18131;DHT22;9191;54.324;10.126;2023-06-10T08:00:51;18.60;99.90
18131;DHT22;9191;54.324;10.126;2023-06-10T08:03:18;18.70;99.90
18131;DHT22;9191;54.324;10.126;2023-06-10T08:05:44;18.80;99.90
18131;DHT22;9191;54.324;10.126;2023-06-10T08:08:11;18.80;99.90
18131;DHT22;9191;54.324;10.126;2023-06-10T08:10:38;18.80;99.90
18131;DHT22;9191;54.324;10.126;2023-06-10T08:13:04;19.10;99.90
18131;DHT22;9191;54.324;10.126;2023-06-10T08:15:32;19.30;99.90
18131;DHT22;9191;54.324;10.126;2023-06-10T08:17:59;19.50;99.90
18131;DHT22;9191;54.324;10.126;2023-06-10T08:20:26;19.60;99.90
18131;DHT22;9191;54.324;10.126;2023-06-10T08:22:52;19.90;99.90
18131;DHT22;9191;54.324;10.126;2023-06-10T08:25:19;19.90;99.90
18131;DHT22;9191;54.324;10.126;2023-06-10T08:27:47;20.10;99.90
18131;DHT22;9191;54.324;10.126;2023-06-10T08:30:14;20.20;99.90
18131;DHT22;9191;54.324;10.126;2023-06-10T08:32:42;19.80;99.90
18131;DHT22;9191;54.324;10.126;2023-06-10T08:35:08;19.60;99.90
18131;DHT22;9191;54.324;10.126;2023-06-10T08:37:35;19.90;99.90
18131;DHT22;9191;54.324;10.126;2023-06-10T08:40:05;20.10;99.90
18131;DHT22;9191;54.324;10.126;2023-06-10T08:42:33;20.40;99.90
18131;DHT22;9191;54.324;10.126;2023-06-10T08:45:01;21.00;99.90
18131;DHT22;9191;54.324;10.126;2023-06-10T08:47:28;21.70;99.90
18131;DHT22;9191;54.324;10.126;2023-06-10T08:49:58;22.70;99.90
18131;DHT22;9191;54.324;10.126;2023-06-10T08:52:29;23.10;99.90
18131;DHT22;9191;54.324;10.126;2023-06-10T08:55:02;23.50;99.90
18131;DHT22;9191;54.324;10.126;2023-06-10T08:57:29;23.30;99.90
18131;DHT22;9191;54.324;10.126;2023-06-10T08:59:56;23.30;99.90
18131;DHT22;9191;54.324;10.126;2023-06-10T09:02:23;23.20;99.90
18131;DHT22;9191;54.324;10.126;2023-06-10T09:04:50;23.20;99.90
18131;DHT22;9191;54.324;10.126;2023-06-10T09:07:20;24.00;99.90
18131;DHT22;9191;54.324;10.126;2023-06-10T09:09:48;24.80;99.90
18131;DHT22;9191;54.324;10.126;2023-06-10T09:12:15;25.00;99.90
18131;DHT22;9191;54.324;10.126;2023-06-10T09:14:42;25.00;99.90
18131;DHT22;9191;54.324;10.126;2023-06-10T09:17:08;24.90;99.90
18131;DHT22;9191;54.324;10.126;2023-06-10T09:19:35;24.80;99.90
18131;DHT22;9191;54.324;10.126;2023-06-10T09:22:03;24.80;99.90
18131;DHT22;9191;54.324;10.126;2023-06-10T09:24:31;25.30;99.90
18131;DHT22;9191;54.324;10.126;2023-06-10T09:27:02;25.70;99.90
18131;DHT22;9191;54.324;10.126;2023-06-10T09:29:29;26.40;99.90
18131;DHT22;9191;54.324;10.126;2023-06-10T09:31:56;26.80;99.90
18131;DHT22;9191;54.324;10.126;2023-06-10T09:34:24;26.80;99.90
18131;DHT22;9191;54.324;10.126;2023-06-10T09:36:51;27.40;99.90
18131;DHT22;9191;54.324;10.126;2023-06-10T09:39:18;27.80;99.90
18131;DHT22;9191;54.324;10.126;2023-06-10T09:41:46;28.30;99.90
18131;DHT22;9191;54.324;10.126;2023-06-10T09:44:16;28.90;99.90
18131;DHT22;9191;54.324;10.126;2023-06-10T09:46:44;29.00;99.90
18131;DHT22;9191;54.324;10.126;2023-06-10T09:49:11;28.80;99.90
18131;DHT22;9191;54.324;10.126;2023-06-10T09:51:38;28.60;99.90
18131;DHT22;9191;54.324;10.126;2023-06-10T09:54:14;28.40;99.90
18131;DHT22;9191;54.324;10.126;2023-06-10T09:56:41;28.60;99.90
18131;DHT22;9191;54.324;10.126;2023-06-10T09:59:09;29.00;99.90
18131;DHT22;9191;54.324;10.126;2023-06-10T10:01:36;28.70;99.90
18131;DHT22;9191;54.324;10.126;2023-06-10T10:04:03;28.20;99.90
18131;DHT22;9191;54.324;10.126;2023-06-10T10:06:30;27.80;99.90
18131;DHT22;9191;54.324;10.126;2023-06-10T10:08:56;28.20;99.90
18131;DHT22;9191;54.324;10.126;2023-06-10T10:11:23;28.20;99.90
18131;DHT22;9191;54.324;10.126;2023-06-10T10:13:51;28.30;99.90
18131;DHT22;9191;54.324;10.126;2023-06-10T10:16:20;28.30;99.90
18131;DHT22;9191;54.324;10.126;2023-06-10T10:18:49;28.40;99.90
18131;DHT22;9191;54.324;10.126;2023-06-10T10:21:21;28.80;99.90
18131;DHT22;9191;54.324;10.126;2023-06-10T10:23:49;28.50;99.90
18131;DHT22;9191;54.324;10.126;2023-06-10T10:26:19;28.80;99.90
18131;DHT22;9191;54.324;10.126;2023-06-10T10:28:53;28.80;99.90
18131;DHT22;9191;54.324;10.126;2023-06-10T10:31:23;29.10;99.90
18131;DHT22;9191;54.324;10.126;2023-06-10T10:33:52;29.70;99.90
18131;DHT22;9191;54.324;10.126;2023-06-10T10:36:21;29.90;99.90
18131;DHT22;9191;54.324;10.126;2023-06-10T10:38:48;30.20;99.90
18131;DHT22;9191;54.324;10.126;2023-06-10T10:41:15;29.80;99.90
18131;DHT22;9191;54.324;10.126;2023-06-10T10:43:44;29.60;99.90
18131;DHT22;9191;54.324;10.126;2023-06-10T10:46:12;29.90;99.90
18131;DHT22;9191;54.324;10.126;2023-06-10T10:48:41;29.90;99.90
18131;DHT22;9191;54.324;10.126;2023-06-10T10:51:08;29.90;99.90
18131;DHT22;9191;54.324;10.126;2023-06-10T10:53:34;29.70;99.90
18131;DHT22;9191;54.324;10.126;2023-06-10T10:56:04;29.50;99.90
18131;DHT22;9191;54.324;10.126;2023-06-10T10:58:31;29.40;99.90
18131;DHT22;9191;54.324;10.126;2023-06-10T11:00:58;29.50;99.90
18131;DHT22;9191;54.324;10.126;2023-06-10T11:03:27;30.00;99.90
18131;DHT22;9191;54.324;10.126;2023-06-10T11:05:56;30.70;99.90
18131;DHT22;9191;54.324;10.126;2023-06-10T11:11:17;31.10;99.90
18131;DHT22;9191;54.324;10.126;2023-06-10T11:13:57;30.90;99.90
18131;DHT22;9191;54.324;10.126;2023-06-10T11:16:27;31.10;99.90
18131;DHT22;9191;54.324;10.126;2023-06-10T11:18:54;29.90;99.90
18131;DHT22;9191;54.324;10.126;2023-06-10T11:21:24;30.00;99.90
18131;DHT22;9191;54.324;10.126;2023-06-10T11:23:51;30.10;99.90
18131;DHT22;9191;54.324;10.126;2023-06-10T11:26:20;30.30;99.90
18131;DHT22;9191;54.324;10.126;2023-06-10T11:29:04;30.30;99.90
18131;DHT22;9191;54.324;10.126;2023-06-10T11:31:33;31.40;99.90
18131;DHT22;9191;54.324;10.126;2023-06-10T11:34:01;31.80;99.90
18131;DHT22;9191;54.324;10.126;2023-06-10T11:36:30;31.60;99.90
18131;DHT22;9191;54.324;10.126;2023-06-10T11:38:57;32.00;99.90
18131;DHT22;9191;54.324;10.126;2023-06-10T11:41:24;31.50;99.90
18131;DHT22;9191;54.324;10.126;2023-06-10T11:43:52;31.80;99.90
18131;DHT22;9191;54.324;10.126;2023-06-10T11:46:18;31.70;99.90
18131;DHT22;9191;54.324;10.126;2023-06-10T11:48:48;31.70;99.90
18131;DHT22;9191;54.324;10.126;2023-06-10T11:51:15;31.90;99.90
18131;DHT22;9191;54.324;10.126;2023-06-10T11:53:44;31.30;99.90
18131;DHT22;9191;54.324;10.126;2023-06-10T11:56:11;30.90;99.90
18131;DHT22;9191;54.324;10.126;2023-06-10T11:58:38;31.30;99.90
18131;DHT22;9191;54.324;10.126;2023-06-10T12:01:07;30.50;99.90
18131;DHT22;9191;54.324;10.126;2023-06-10T12:03:35;31.00;99.90
18131;DHT22;9191;54.324;10.126;2023-06-10T12:06:03;31.10;99.90
18131;DHT22;9191;54.324;10.126;2023-06-10T12:08:30;31.30;99.90
18131;DHT22;9191;54.324;10.126;2023-06-10T12:10:58;31.30;99.90
18131;DHT22;9191;54.324;10.126;2023-06-10T12:13:26;31.10;99.90
18131;DHT22;9191;54.324;10.126;2023-06-10T12:15:53;31.10;99.90
18131;DHT22;9191;54.324;10.126;2023-06-10T12:18:20;31.20;99.90
18131;DHT22;9191;54.324;10.126;2023-06-10T12:20:47;30.60;99.90
18131;DHT22;9191;54.324;10.126;2023-06-10T12:23:15;30.00;99.90
18131;DHT22;9191;54.324;10.126;2023-06-10T12:25:49;30.60;99.90
18131;DHT22;9191;54.324;10.126;2023-06-10T12:28:18;31.00;99.90
18131;DHT22;9191;54.324;10.126;2023-06-10T12:30:46;31.20;99.90
18131;DHT22;9191;54.324;10.126;2023-06-10T12:33:16;31.20;99.90
18131;DHT22;9191;54.324;10.126;2023-06-10T12:35:46;30.70;99.90
18131;DHT22;9191;54.324;10.126;2023-06-10T12:38:13;30.70;99.90
18131;DHT22;9191;54.324;10.126;2023-06-10T12:40:40;30.10;99.90
18131;DHT22;9191;54.324;10.126;2023-06-10T12:43:07;29.60;99.90
18131;DHT22;9191;54.324;10.126;2023-06-10T12:45:35;30.00;99.90
18131;DHT22;9191;54.324;10.126;2023-06-10T12:48:05;30.00;99.90
18131;DHT22;9191;54.324;10.126;2023-06-10T12:50:34;30.20;99.90
18131;DHT22;9191;54.324;10.126;2023-06-10T12:53:01;30.70;99.90
18131;DHT22;9191;54.324;10.126;2023-06-10T12:55:27;31.40;99.90
18131;DHT22;9191;54.324;10.126;2023-06-10T12:57:55;31.60;99.90
18131;DHT22;9191;54.324;10.126;2023-06-10T13:00:23;31.80;99.90
18131;DHT22;9191;54.324;10.126;2023-06-10T13:02:52;32.20;99.90
18131;DHT22;9191;54.324;10.126;2023-06-10T13:05:19;32.50;99.90
18131;DHT22;9191;54.324;10.126;2023-06-10T13:07:46;32.00;99.90
18131;DHT22;9191;54.324;10.126;2023-06-10T13:10:13;32.40;99.90
18131;DHT22;9191;54.324;10.126;2023-06-10T13:12:40;32.30;99.90
18131;DHT22;9191;54.324;10.126;2023-06-10T13:15:07;32.60;99.90
18131;DHT22;9191;54.324;10.126;2023-06-10T13:17:33;31.70;99.90
18131;DHT22;9191;54.324;10.126;2023-06-10T13:20:03;31.10;99.90
18131;DHT22;9191;54.324;10.126;2023-06-10T13:22:30;30.30;99.90
18131;DHT22;9191;54.324;10.126;2023-06-10T13:24:58;30.30;99.90
18131;DHT22;9191;54.324;10.126;2023-06-10T13:27:24;30.00;99.90
18131;DHT22;9191;54.324;10.126;2023-06-10T13:29:52;29.70;99.90
18131;DHT22;9191;54.324;10.126;2023-06-10T13:32:19;29.80;99.90
18131;DHT22;9191;54.324;10.126;2023-06-10T13:34:46;29.90;99.90
18131;DHT22;9191;54.324;10.126;2023-06-10T13:37:14;30.70;99.90
18131;DHT22;9191;54.324;10.126;2023-06-10T13:39:43;31.20;99.90
18131;DHT22;9191;54.324;10.126;2023-06-10T13:42:10;31.60;99.90
18131;DHT22;9191;54.324;10.126;2023-06-10T13:44:40;31.50;99.90
18131;DHT22;9191;54.324;10.126;2023-06-10T13:47:08;31.60;99.90
18131;DHT22;9191;54.324;10.126;2023-06-10T13:49:35;31.20;99.90
18131;DHT22;9191;54.324;10.126;2023-06-10T13:52:02;31.40;99.90
18131;DHT22;9191;54.324;10.126;2023-06-10T13:54:30;31.20;99.90
18131;DHT22;9191;54.324;10.126;2023-06-10T13:56:56;30.60;99.90
18131;DHT22;9191;54.324;10.126;2023-06-10T13:59:25;31.20;99.90
18131;DHT22;9191;54.324;10.126;2023-06-10T14:01:52;31.50;99.90
18131;DHT22;9191;54.324;10.126;2023-06-10T14:04:19;31.70;99.90
18131;DHT22;9191;54.324;10.126;2023-06-10T14:06:48;31.50;99.90
18131;DHT22;9191;54.324;10.126;2023-06-10T14:09:15;31.40;99.90
18131;DHT22;9191;54.324;10.126;2023-06-10T14:11:43;31.10;99.90
18131;DHT22;9191;54.324;10.126;2023-06-10T14:14:17;30.90;99.90
18131;DHT22;9191;54.324;10.126;2023-06-10T14:16:44;31.40;99.90
18131;DHT22;9191;54.324;10.126;2023-06-10T14:19:11;30.70;99.90
18131;DHT22;9191;54.324;10.126;2023-06-10T14:21:39;30.80;99.90
18131;DHT22;9191;54.324;10.126;2023-06-10T14:24:06;30.20;99.90
18131;DHT22;9191;54.324;10.126;2023-06-10T14:26:33;30.00;99.90
18131;DHT22;9191;54.324;10.126;2023-06-10T14:29:02;29.60;99.90
18131;DHT22;9191;54.324;10.126;2023-06-10T14:31:32;29.00;99.90
18131;DHT22;9191;54.324;10.126;2023-06-10T14:33:58;27.90;99.90
18131;DHT22;9191;54.324;10.126;2023-06-10T14:36:25;27.40;99.90
18131;DHT22;9191;54.324;10.126;2023-06-10T14:38:52;26.90;99.90
18131;DHT22;9191;54.324;10.126;2023-06-10T14:41:19;26.50;99.90
18131;DHT22;9191;54.324;10.126;2023-06-10T14:43:47;25.90;99.90
18131;DHT22;9191;54.324;10.126;2023-06-10T14:46:16;25.40;99.90
18131;DHT22;9191;54.324;10.126;2023-06-10T14:48:42;25.20;99.90
18131;DHT22;9191;54.324;10.126;2023-06-10T14:51:09;25.10;99.90
18131;DHT22;9191;54.324;10.126;2023-06-10T14:53:36;24.60;99.90
18131;DHT22;9191;54.324;10.126;2023-06-10T14:56:03;24.10;99.90
18131;DHT22;9191;54.324;10.126;2023-06-10T14:58:29;23.90;99.90
18131;DHT22;9191;54.324;10.126;2023-06-10T15:00:56;23.80;99.90
18131;DHT22;9191;54.324;10.126;2023-06-10T15:03:24;23.90;99.90
18131;DHT22;9191;54.324;10.126;2023-06-10T15:05:51;23.70;99.90
18131;DHT22;9191;54.324;10.126;2023-06-10T15:08:17;23.50;99.90
18131;DHT22;9191;54.324;10.126;2023-06-10T15:10:47;23.50;99.90
18131;DHT22;9191;54.324;10.126;2023-06-10T15:13:14;23.60;99.90
18131;DHT22;9191;54.324;10.126;2023-06-10T15:15:41;23.50;99.90
18131;DHT22;9191;54.324;10.126;2023-06-10T15:18:10;23.20;99.90
18131;DHT22;9191;54.324;10.126;2023-06-10T15:20:38;23.10;99.90
18131;DHT22;9191;54.324;10.126;2023-06-10T15:23:08;23.30;99.90
18131;DHT22;9191;54.324;10.126;2023-06-10T15:25:34;23.50;99.90
18131;DHT22;9191;54.324;10.126;2023-06-10T15:28:03;23.50;99.90
18131;DHT22;9191;54.324;10.126;2023-06-10T15:30:31;23.40;99.90
18131;DHT22;9191;54.324;10.126;2023-06-10T15:32:57;23.30;99.90
18131;DHT22;9191;54.324;10.126;2023-06-10T15:35:26;23.30;99.90